Sally Maersk — OZHS2 — position and weather

sailwx.info

Track history (hours):
 
Tides and Currents Weather Stations Pressure Air Temp Water Temp Dewpoint Dewpoint Depression Visibility Wind Speed Wind Dir Waves Ship Positions

Sally Maersk

Last reported at 2018-Jan-10 12:32 UTC. Time now 2018-Jan-19 03:29 UTC.
Position N 34°50' E 140°21'.
Warning: this ship's position is 8 days out of date.

Type: Ship (hazmat cat A). MMSI: 219324000.

Date/timePositionNaut miles runAvg speedWind from/ knotsBaromVisibWave heightAir tempDewpointWater temp
2018-Jan-10 12:32N 34°50' E 140°21'421.2
2018-Jan-10 12:20N 34°50' E 140°16'720.9
2018-Jan-10 12:00N 34°50' E 140°07'1120.3
2018-Jan-10 11:28N 34°51' E 139°54'919.9
2018-Jan-10 11:00N 34°51' E 139°43'917.5
2018-Jan-10 10:30N 35°00' E 139°41'816.5
2018-Jan-10 10:00N 35°08' E 139°44'5 9.2
2018-Jan-10 09:30N 35°12' E 139°46'510.2
2018-Jan-10 09:00N 35°17' E 139°45'612.3
2018-Jan-10 08:30N 35°23' E 139°41'1 2.2
2018-Jan-10 07:58N 35°24' E 139°41'0 0.1
2018-Jan-10 07:28N 35°24' E 139°41'0 0.0
2018-Jan-10 07:00N 35°24' E 139°41'0 0.0
2018-Jan-10 06:30N 35°24' E 139°41'0 0.0
2018-Jan-10 06:00N 35°24' E 139°41'0 0.0
2018-Jan-10 05:30N 35°24' E 139°41'0 0.0
2018-Jan-10 05:01N 35°24' E 139°41'0 0.0
2018-Jan-10 04:31N 35°24' E 139°41'0 0.0
2018-Jan-10 04:00N 35°24' E 139°41'0 0.0
2018-Jan-10 03:30N 35°24' E 139°41'0 0.0
2018-Jan-10 03:00N 35°24' E 139°41'0 0.0
2018-Jan-10 02:30N 35°24' E 139°41'0 0.0
2018-Jan-10 02:00N 35°24' E 139°41'0 0.0
2018-Jan-10 01:30N 35°24' E 139°41'0 0.0
2018-Jan-10 01:01N 35°24' E 139°41'0 0.0
2018-Jan-10 00:31N 35°24' E 139°41'0 0.0
2018-Jan-10 00:00N 35°24' E 139°41'0 0.0
2018-Jan-09 23:30N 35°24' E 139°41'0 0.1
2018-Jan-09 23:00N 35°24' E 139°41'1 2.6
2018-Jan-09 22:31N 35°23' E 139°42'3 5.3
2018-Jan-09 22:00N 35°20' E 139°43'5 9.9
2018-Jan-09 21:30N 35°16' E 139°46'611.3
2018-Jan-09 21:00N 35°11' E 139°47'4 7.6
2018-Jan-09 20:31N 35°07' E 139°46'4 7.0
2018-Jan-09 20:01N 35°04' E 139°44'5 9.4
2018-Jan-09 19:30N 35°03' E 139°38'5 9.7
2018-Jan-09 19:01N 35°03' E 139°32'510.7
2018-Jan-09 18:30N 35°02' E 139°26'5 9.2
2018-Jan-09 18:00N 35°02' E 139°20'1 2.2
2018-Jan-09 17:30N 35°02' E 139°19'1 1.9
2018-Jan-09 17:00N 35°02' E 139°18'0 0.9
2018-Jan-09 16:31N 35°02' E 139°17'1 2.4
2018-Jan-09 16:00N 35°03' E 139°18'1 2.9
2018-Jan-09 15:30N 35°04' E 139°20'1 1.3
2018-Jan-09 15:00N 35°04' E 139°19'1 2.8
2018-Jan-09 14:30N 35°03' E 139°18'1 2.3
2018-Jan-09 14:00N 35°02' E 139°17'1 1.2
2018-Jan-09 13:30N 35°02' E 139°16'3 6.5
2018-Jan-09 13:01N 35°04' E 139°19'5 8.9
2018-Jan-09 12:30N 35°05' E 139°25'5 9.6
2018-Jan-09 12:01N 35°00' E 139°26'611.7
2018-Jan-09 11:30N 34°55' E 139°25'814.7
2018-Jan-09 10:57N 34°49' E 139°18'613.0
2018-Jan-09 10:30N 34°44' E 139°15'812.8
2018-Jan-09 09:54N 34°37' E 139°10'4 9.0
2018-Jan-09 09:30N 34°34' E 139°07'611.4
2018-Jan-09 09:00N 34°30' E 139°02'815.2
2018-Jan-09 08:30N 34°27' E 138°54'714.1
2018-Jan-09 08:00N 34°23' E 138°47'714.1
2018-Jan-09 07:30N 34°20' E 138°39'713.4
2018-Jan-09 06:57N 34°17' E 138°31'713.3
2018-Jan-09 06:23N 34°14' E 138°23'612.9
2018-Jan-09 05:57N 34°12' E 138°16'812.3
2018-Jan-09 05:16N 34°08' E 138°07'311.2
2018-Jan-09 05:00N 34°06' E 138°04'  
2018-Jan-02 01:59N 23°51' E 119°55'919.0
2018-Jan-02 01:30N 23°41' E 119°54'1019.5
2018-Jan-02 01:00N 23°32' E 119°54'1019.7
2018-Jan-02 00:30N 23°22' E 119°53'1619.5
2018-Jan-01 23:41N 23°06' E 119°52'1018.8
2018-Jan-01 23:09N 22°56' E 119°54'419.4
2018-Jan-01 22:57N 22°53' E 119°56'919.2
2018-Jan-01 22:30N 22°46' E 120°01'1019.3
2018-Jan-01 22:00N 22°37' E 120°07'816.4
2018-Jan-01 21:30N 22°33' E 120°14'510.0
2018-Jan-01 21:00N 22°33' E 120°19'0 0.7
2018-Jan-01 20:30N 22°33' E 120°20'0 0.0
2018-Jan-01 19:59N 22°33' E 120°20'0 0.0
2018-Jan-01 19:29N 22°33' E 120°20'0 0.0
2018-Jan-01 18:59N 22°33' E 120°20'0 0.0
2018-Jan-01 18:29N 22°33' E 120°20'0 0.0
2018-Jan-01 17:56N 22°33' E 120°20'0 0.0
2018-Jan-01 17:29N 22°33' E 120°20'0 0.0
2018-Jan-01 14:59N 22°33' E 120°20'0 0.0
2018-Jan-01 14:26N 22°33' E 120°20'0 0.0
2018-Jan-01 13:59N 22°33' E 120°20'0 0.0
2018-Jan-01 13:29N 22°33' E 120°20'0 0.0
2018-Jan-01 12:59N 22°33' E 120°20'1 0.5
2018-Jan-01 12:00N 22°33' E 120°19'3 6.9
2018-Jan-01 11:30N 22°32' E 120°15'4 8.8
2018-Jan-01 11:00N 22°32' E 120°11'611.8
2018-Jan-01 10:30N 22°30' E 120°05'611.8
2018-Jan-01 10:01N 22°29' E 119°58'815.2
2018-Jan-01 09:30N 22°25' E 119°51'  
Track history (hours):
 
Tides and Currents Weather Stations Pressure Air Temp Water Temp Dewpoint Dewpoint Depression Visibility Wind Speed Wind Dir Waves Ship Positions

Sally Maersk

Last reported at 2018-Jan-10 12:32 UTC. Time now 2018-Jan-19 03:29 UTC.
Position N 34°50' E 140°21'.
Warning: this ship's position is 8 days out of date.

Type: Ship (hazmat cat A). MMSI: 219324000.

Date/timePositionNaut miles runAvg speedWind from/ knotsBaromVisibWave heightAir tempDewpointWater temp
2018-Jan-10 12:32N 34°50' E 140°21'421.2
2018-Jan-10 12:20N 34°50' E 140°16'720.9
2018-Jan-10 12:00N 34°50' E 140°07'1120.3
2018-Jan-10 11:28N 34°51' E 139°54'919.9
2018-Jan-10 11:00N 34°51' E 139°43'917.5
2018-Jan-10 10:30N 35°00' E 139°41'816.5
2018-Jan-10 10:00N 35°08' E 139°44'5 9.2
2018-Jan-10 09:30N 35°12' E 139°46'510.2
2018-Jan-10 09:00N 35°17' E 139°45'612.3
2018-Jan-10 08:30N 35°23' E 139°41'1 2.2
2018-Jan-10 07:58N 35°24' E 139°41'0 0.1
2018-Jan-10 07:28N 35°24' E 139°41'0 0.0
2018-Jan-10 07:00N 35°24' E 139°41'0 0.0
2018-Jan-10 06:30N 35°24' E 139°41'0 0.0
2018-Jan-10 06:00N 35°24' E 139°41'0 0.0
2018-Jan-10 05:30N 35°24' E 139°41'0 0.0
2018-Jan-10 05:01N 35°24' E 139°41'0 0.0
2018-Jan-10 04:31N 35°24' E 139°41'0 0.0
2018-Jan-10 04:00N 35°24' E 139°41'0 0.0
2018-Jan-10 03:30N 35°24' E 139°41'0 0.0
2018-Jan-10 03:00N 35°24' E 139°41'0 0.0
2018-Jan-10 02:30N 35°24' E 139°41'0 0.0
2018-Jan-10 02:00N 35°24' E 139°41'0 0.0
2018-Jan-10 01:30N 35°24' E 139°41'0 0.0
2018-Jan-10 01:01N 35°24' E 139°41'0 0.0
2018-Jan-10 00:31N 35°24' E 139°41'0 0.0
2018-Jan-10 00:00N 35°24' E 139°41'0 0.0
2018-Jan-09 23:30N 35°24' E 139°41'0 0.1
2018-Jan-09 23:00N 35°24' E 139°41'1 2.6
2018-Jan-09 22:31N 35°23' E 139°42'3 5.3
2018-Jan-09 22:00N 35°20' E 139°43'5 9.9
2018-Jan-09 21:30N 35°16' E 139°46'611.3
2018-Jan-09 21:00N 35°11' E 139°47'4 7.6
2018-Jan-09 20:31N 35°07' E 139°46'4 7.0
2018-Jan-09 20:01N 35°04' E 139°44'5 9.4
2018-Jan-09 19:30N 35°03' E 139°38'5 9.7
2018-Jan-09 19:01N 35°03' E 139°32'510.7
2018-Jan-09 18:30N 35°02' E 139°26'5 9.2
2018-Jan-09 18:00N 35°02' E 139°20'1 2.2
2018-Jan-09 17:30N 35°02' E 139°19'1 1.9
2018-Jan-09 17:00N 35°02' E 139°18'0 0.9
2018-Jan-09 16:31N 35°02' E 139°17'1 2.4
2018-Jan-09 16:00N 35°03' E 139°18'1 2.9
2018-Jan-09 15:30N 35°04' E 139°20'1 1.3
2018-Jan-09 15:00N 35°04' E 139°19'1 2.8
2018-Jan-09 14:30N 35°03' E 139°18'1 2.3
2018-Jan-09 14:00N 35°02' E 139°17'1 1.2
2018-Jan-09 13:30N 35°02' E 139°16'3 6.5
2018-Jan-09 13:01N 35°04' E 139°19'5 8.9
2018-Jan-09 12:30N 35°05' E 139°25'5 9.6
2018-Jan-09 12:01N 35°00' E 139°26'611.7
2018-Jan-09 11:30N 34°55' E 139°25'814.7
2018-Jan-09 10:57N 34°49' E 139°18'613.0
2018-Jan-09 10:30N 34°44' E 139°15'812.8
2018-Jan-09 09:54N 34°37' E 139°10'4 9.0
2018-Jan-09 09:30N 34°34' E 139°07'611.4
2018-Jan-09 09:00N 34°30' E 139°02'815.2
2018-Jan-09 08:30N 34°27' E 138°54'714.1
2018-Jan-09 08:00N 34°23' E 138°47'714.1
2018-Jan-09 07:30N 34°20' E 138°39'713.4
2018-Jan-09 06:57N 34°17' E 138°31'713.3
2018-Jan-09 06:23N 34°14' E 138°23'612.9
2018-Jan-09 05:57N 34°12' E 138°16'812.3
2018-Jan-09 05:16N 34°08' E 138°07'311.2
2018-Jan-09 05:00N 34°06' E 138°04'  
2018-Jan-02 01:59N 23°51' E 119°55'919.0
2018-Jan-02 01:30N 23°41' E 119°54'1019.5
2018-Jan-02 01:00N 23°32' E 119°54'1019.7
2018-Jan-02 00:30N 23°22' E 119°53'1619.5
2018-Jan-01 23:41N 23°06' E 119°52'1018.8
2018-Jan-01 23:09N 22°56' E 119°54'419.4
2018-Jan-01 22:57N 22°53' E 119°56'919.2
2018-Jan-01 22:30N 22°46' E 120°01'1019.3
2018-Jan-01 22:00N 22°37' E 120°07'816.4
2018-Jan-01 21:30N 22°33' E 120°14'510.0
2018-Jan-01 21:00N 22°33' E 120°19'0 0.7
2018-Jan-01 20:30N 22°33' E 120°20'0 0.0
2018-Jan-01 19:59N 22°33' E 120°20'0 0.0
2018-Jan-01 19:29N 22°33' E 120°20'0 0.0
2018-Jan-01 18:59N 22°33' E 120°20'0 0.0
2018-Jan-01 18:29N 22°33' E 120°20'0 0.0
2018-Jan-01 17:56N 22°33' E 120°20'0 0.0
2018-Jan-01 17:29N 22°33' E 120°20'0 0.0
2018-Jan-01 14:59N 22°33' E 120°20'0 0.0
2018-Jan-01 14:26N 22°33' E 120°20'0 0.0
2018-Jan-01 13:59N 22°33' E 120°20'0 0.0
2018-Jan-01 13:29N 22°33' E 120°20'0 0.0
2018-Jan-01 12:59N 22°33' E 120°20'1 0.5
2018-Jan-01 12:00N 22°33' E 120°19'3 6.9
2018-Jan-01 11:30N 22°32' E 120°15'4 8.8
2018-Jan-01 11:00N 22°32' E 120°11'611.8
2018-Jan-01 10:30N 22°30' E 120°05'611.8
2018-Jan-01 10:01N 22°29' E 119°58'815.2
2018-Jan-01 09:30N 22°25' E 119°51'  

Dump ship's entire track history